createdAt,value
2024-02-13T00:01:52.944Z,7.20
2024-02-13T00:06:48.624Z,7.20
2024-02-13T00:09:15.700Z,7.30
2024-02-13T00:11:44.533Z,7.20
2024-02-13T00:14:14.348Z,7.00
2024-02-13T00:16:43.051Z,6.90
2024-02-13T00:19:15.289Z,6.90
2024-02-13T00:21:43.429Z,7.20
2024-02-13T00:24:17.385Z,7.20
2024-02-13T00:26:48.496Z,7.20
2024-02-13T00:29:24.501Z,7.10
2024-02-13T00:31:52.135Z,7.40
2024-02-13T00:34:23.492Z,7.30
2024-02-13T00:36:55.104Z,7.50
2024-02-13T00:39:22.809Z,7.30
2024-02-13T00:41:56.273Z,7.50
2024-02-13T00:44:29.296Z,7.40
2024-02-13T00:47:02.457Z,7.50
2024-02-13T00:49:32.997Z,7.10
2024-02-13T00:52:05.990Z,7.30
2024-02-13T00:54:33.148Z,7.10
2024-02-13T00:57:02.758Z,7.30
2024-02-13T00:59:30.467Z,7.10
2024-02-13T01:02:00.269Z,7.50
2024-02-13T01:04:28.292Z,7.60
2024-02-13T01:06:59.553Z,7.70
2024-02-13T01:09:30.459Z,7.50
2024-02-13T01:12:00.526Z,7.40
2024-02-13T01:14:31.852Z,7.40
2024-02-13T01:17:00.700Z,7.10
2024-02-13T01:19:31.271Z,7.40
2024-02-13T01:21:58.712Z,7.50
2024-02-13T01:24:33.352Z,7.50
2024-02-13T01:27:03.176Z,7.40
2024-02-13T01:29:37.185Z,7.50
2024-02-13T01:32:07.965Z,7.30
2024-02-13T01:34:37.513Z,7.20
2024-02-13T01:37:06.033Z,7.50
2024-02-13T01:39:35.608Z,7.30
2024-02-13T01:42:03.001Z,7.40
2024-02-13T01:44:32.047Z,7.40
2024-02-13T01:46:59.102Z,7.30
2024-02-13T01:49:30.229Z,7.10
2024-02-13T01:52:00.178Z,6.70
2024-02-13T01:54:28.440Z,6.80
2024-02-13T01:56:56.136Z,6.80
2024-02-13T01:59:26.874Z,6.60
2024-02-13T02:01:55.262Z,6.70
2024-02-13T02:04:23.991Z,6.80
2024-02-13T02:06:51.273Z,6.80
2024-02-13T02:09:19.374Z,6.70
2024-02-13T02:11:48.167Z,6.60
2024-02-13T02:14:17.808Z,6.60
2024-02-13T02:16:47.459Z,6.70
2024-02-13T02:19:16.287Z,6.90
2024-02-13T02:21:47.896Z,6.70
2024-02-13T02:24:16.680Z,7.00
2024-02-13T02:26:44.130Z,6.80
2024-02-13T02:29:11.379Z,6.70
2024-02-13T02:31:39.675Z,6.70
2024-02-13T02:34:06.650Z,6.90
2024-02-13T02:36:33.745Z,6.60
2024-02-13T02:39:00.797Z,6.40
2024-02-13T02:41:27.903Z,6.30
2024-02-13T02:43:54.928Z,6.40
2024-02-13T02:46:21.975Z,6.50
2024-02-13T02:48:51.760Z,6.60
2024-02-13T02:51:18.811Z,6.40
2024-02-13T02:53:45.754Z,6.20
2024-02-13T02:56:16.954Z,6.40
2024-02-13T02:58:44.689Z,6.30
2024-02-13T03:01:15.291Z,6.30
2024-02-13T03:03:44.993Z,6.30
2024-02-13T03:06:14.997Z,6.50
2024-02-13T03:08:44.073Z,6.30
2024-02-13T03:11:14.683Z,6.10
2024-02-13T03:13:41.829Z,6.30
2024-02-13T03:16:10.579Z,5.90
2024-02-13T03:18:39.612Z,5.90
2024-02-13T03:21:11.242Z,6.10
2024-02-13T03:23:42.208Z,6.00
2024-02-13T03:26:10.705Z,6.10
2024-02-13T03:28:41.449Z,6.00
2024-02-13T03:31:13.193Z,6.00
2024-02-13T03:33:40.564Z,5.90
2024-02-13T03:36:11.285Z,5.90
2024-02-13T03:38:50.468Z,5.90
2024-02-13T03:41:33.670Z,5.90
2024-02-13T03:44:08.234Z,6.10
2024-02-13T03:46:45.111Z,6.10
2024-02-13T03:49:16.299Z,6.00
2024-02-13T03:51:43.576Z,6.00
2024-02-13T03:54:13.614Z,6.10
2024-02-13T03:56:45.555Z,6.10
2024-02-13T03:59:19.494Z,5.90
2024-02-13T04:01:50.198Z,5.90
2024-02-13T04:04:32.142Z,5.90
2024-02-13T04:07:11.885Z,6.00
2024-02-13T04:10:02.259Z,6.10
2024-02-13T04:12:40.449Z,5.90
2024-02-13T04:15:14.834Z,5.90
2024-02-13T04:17:48.334Z,6.00
2024-02-13T04:20:30.944Z,5.90
2024-02-13T04:23:09.831Z,6.00
2024-02-13T04:25:44.923Z,5.90
2024-02-13T04:28:17.520Z,6.10
2024-02-13T04:30:46.213Z,6.00
2024-02-13T04:33:17.142Z,5.80
2024-02-13T04:35:44.417Z,5.70
2024-02-13T04:38:14.250Z,5.80
2024-02-13T04:40:42.286Z,6.00
2024-02-13T04:43:19.404Z,5.90
2024-02-13T04:45:46.734Z,6.00
2024-02-13T04:48:21.021Z,5.80
2024-02-13T04:50:56.202Z,5.90
2024-02-13T04:53:43.569Z,5.60
2024-02-13T04:59:18.397Z,5.60
2024-02-13T05:01:57.588Z,5.40
2024-02-13T05:04:30.568Z,5.40
2024-02-13T05:07:43.205Z,5.60
2024-02-13T05:10:15.197Z,5.50
2024-02-13T05:12:44.902Z,5.80
2024-02-13T05:15:23.899Z,5.50
2024-02-13T05:18:03.294Z,5.70
2024-02-13T05:20:44.853Z,5.50
2024-02-13T05:23:22.100Z,5.40
2024-02-13T05:25:54.988Z,5.50
2024-02-13T05:28:27.191Z,5.60
2024-02-13T05:30:57.440Z,5.60
2024-02-13T05:33:28.160Z,5.30
2024-02-13T05:35:55.683Z,5.00
2024-02-13T05:38:26.855Z,5.30
2024-02-13T05:40:56.799Z,5.40
2024-02-13T05:43:27.157Z,5.30
2024-02-13T05:46:02.099Z,5.10
2024-02-13T05:48:32.368Z,5.50
2024-02-13T05:50:59.741Z,5.50
2024-02-13T05:53:30.165Z,5.60
2024-02-13T05:55:57.564Z,5.60
2024-02-13T05:58:30.081Z,5.70
2024-02-13T06:00:59.663Z,5.50
2024-02-13T06:03:26.783Z,5.40
2024-02-13T06:05:56.492Z,5.50
2024-02-13T06:08:26.296Z,5.40
2024-02-13T06:11:04.319Z,5.40
2024-02-13T06:20:16.359Z,5.20
2024-02-13T06:23:44.818Z,5.40
2024-02-13T06:28:58.330Z,5.00
2024-02-13T06:31:25.580Z,4.80
2024-02-13T06:34:08.713Z,5.10
2024-02-13T06:36:47.968Z,5.20
2024-02-13T06:39:36.057Z,5.50
2024-02-13T06:42:05.742Z,5.60
2024-02-13T06:44:33.291Z,5.60
2024-02-13T06:47:01.300Z,5.70
2024-02-13T06:49:31.925Z,5.80
2024-02-13T06:51:59.218Z,5.60
2024-02-13T06:54:26.275Z,5.70
2024-02-13T06:56:53.167Z,5.80
2024-02-13T06:59:20.183Z,5.60
2024-02-13T07:01:47.042Z,5.60
2024-02-13T07:04:14.656Z,5.80
2024-02-13T07:06:54.951Z,5.80
2024-02-13T07:09:31.446Z,5.90
2024-02-13T07:11:58.426Z,5.90
2024-02-13T07:14:26.368Z,6.10
2024-02-13T07:16:54.267Z,6.00
2024-02-13T07:19:21.188Z,6.00
2024-02-13T07:21:48.046Z,6.10
2024-02-13T07:24:14.811Z,6.10
2024-02-13T07:26:41.694Z,6.00
2024-02-13T07:29:08.539Z,6.10
2024-02-13T07:31:39.449Z,6.10
2024-02-13T07:34:06.932Z,6.20
2024-02-13T07:36:35.275Z,6.30
2024-02-13T07:39:02.330Z,6.20
2024-02-13T07:41:38.771Z,6.40
2024-02-13T07:44:05.755Z,6.40
2024-02-13T07:46:37.542Z,6.50
2024-02-13T07:49:04.553Z,6.50
2024-02-13T07:51:34.054Z,6.40
2024-02-13T07:54:01.017Z,6.60
2024-02-13T07:56:30.588Z,6.70
2024-02-13T07:59:00.477Z,6.60
2024-02-13T08:01:28.079Z,6.60
2024-02-13T08:03:55.774Z,6.40
2024-02-13T08:06:22.818Z,6.40
2024-02-13T08:08:51.293Z,6.50
2024-02-13T08:11:18.455Z,6.30
2024-02-13T08:13:45.741Z,6.40
2024-02-13T08:16:12.721Z,6.50
2024-02-13T08:18:42.179Z,6.60
2024-02-13T08:21:09.274Z,6.70
2024-02-13T08:23:38.684Z,6.60
2024-02-13T08:26:06.465Z,6.80
2024-02-13T08:28:33.352Z,6.80
2024-02-13T08:31:00.301Z,6.70
2024-02-13T08:33:27.408Z,6.70
2024-02-13T08:36:03.952Z,6.80
2024-02-13T08:38:31.325Z,6.80
2024-02-13T08:40:58.394Z,6.80
2024-02-13T08:43:26.684Z,7.00
2024-02-13T08:45:53.624Z,7.10
2024-02-13T08:48:20.748Z,6.80
2024-02-13T08:50:49.766Z,7.10
2024-02-13T08:53:16.636Z,7.20
2024-02-13T08:55:43.424Z,7.30
2024-02-13T08:58:10.279Z,7.50
2024-02-13T09:00:37.091Z,7.70
2024-02-13T09:03:04.381Z,7.80
2024-02-13T09:05:31.362Z,8.10
2024-02-13T09:07:58.206Z,8.30
2024-02-13T09:10:25.023Z,8.30
2024-02-13T09:12:51.876Z,8.40
2024-02-13T09:15:18.993Z,8.40
2024-02-13T09:17:46.878Z,8.60
2024-02-13T09:20:22.629Z,8.80
2024-02-13T09:22:50.742Z,8.90
2024-02-13T09:25:20.521Z,8.90
2024-02-13T09:27:52.585Z,9.00
2024-02-13T09:30:19.915Z,9.00
2024-02-13T09:32:50.459Z,9.20
2024-02-13T09:35:18.869Z,9.30
2024-02-13T09:37:45.751Z,9.30
2024-02-13T09:40:14.628Z,9.40
2024-02-13T09:42:45.810Z,9.30
2024-02-13T09:45:14.830Z,9.50
2024-02-13T09:47:42.872Z,9.50
2024-02-13T09:50:15.555Z,9.70
2024-02-13T09:52:55.935Z,9.60
2024-02-13T09:55:23.401Z,9.60
2024-02-13T09:57:51.354Z,9.80
2024-02-13T10:00:19.625Z,9.80
2024-02-13T10:02:51.020Z,9.90
2024-02-13T10:05:19.150Z,10.00
2024-02-13T10:07:46.404Z,10.10
2024-02-13T10:10:14.439Z,10.10
2024-02-13T10:13:04.776Z,10.20
2024-02-13T10:15:46.570Z,10.20
2024-02-13T10:18:15.020Z,10.30
2024-02-13T10:20:43.505Z,10.20
2024-02-13T10:23:15.689Z,10.10
2024-02-13T10:25:44.931Z,10.10
2024-02-13T10:28:14.321Z,10.30
2024-02-13T10:30:41.691Z,10.30
2024-02-13T10:33:08.772Z,10.50
2024-02-13T10:35:35.976Z,10.40
2024-02-13T10:38:08.669Z,10.50
2024-02-13T10:40:40.548Z,10.70
2024-02-13T10:43:13.406Z,10.70
2024-02-13T10:45:41.066Z,10.80
2024-02-13T10:48:31.756Z,10.90
2024-02-13T10:51:01.791Z,10.80
2024-02-13T10:53:29.663Z,10.90
2024-02-13T10:55:58.611Z,10.80
2024-02-13T10:58:35.307Z,10.60
2024-02-13T11:01:16.699Z,10.90
2024-02-13T11:03:46.418Z,11.10
2024-02-13T11:06:13.705Z,11.00
2024-02-13T11:08:40.922Z,11.10
2024-02-13T11:11:21.048Z,11.10
2024-02-13T11:13:50.698Z,11.00
2024-02-13T11:16:19.467Z,11.00
2024-02-13T11:18:51.837Z,11.10
2024-02-13T11:21:25.714Z,11.10
2024-02-13T11:23:58.778Z,10.90
2024-02-13T11:26:34.174Z,11.00
2024-02-13T11:29:21.851Z,11.00
2024-02-13T11:31:59.495Z,11.10
2024-02-13T11:34:44.817Z,11.10
2024-02-13T11:37:22.247Z,11.10
2024-02-13T11:39:50.138Z,11.10
2024-02-13T11:42:20.853Z,11.40
2024-02-13T11:44:50.532Z,11.70
2024-02-13T11:47:24.114Z,11.60
2024-02-13T11:49:52.213Z,11.60
2024-02-13T11:52:21.079Z,11.50
2024-02-13T11:54:52.487Z,11.70
2024-02-13T11:57:22.097Z,11.90
2024-02-13T12:00:02.887Z,11.80
2024-02-13T12:17:13.756Z,12.30
2024-02-13T12:19:45.133Z,12.10
2024-02-13T12:22:17.133Z,12.00
2024-02-13T12:24:46.771Z,12.20
2024-02-13T12:27:17.871Z,12.20
2024-02-13T12:29:45.878Z,12.40
2024-02-13T12:32:21.207Z,12.50
2024-02-13T12:34:49.924Z,12.30
2024-02-13T12:37:19.186Z,12.80
2024-02-13T12:39:48.372Z,13.00
2024-02-13T12:42:20.057Z,13.10
2024-02-13T12:44:49.362Z,13.40
2024-02-13T12:47:20.673Z,13.50
2024-02-13T12:49:48.567Z,13.40
2024-02-13T12:52:23.677Z,13.60
2024-02-13T12:54:53.025Z,13.70
2024-02-13T12:57:22.254Z,13.80
2024-02-13T12:59:49.765Z,14.10
2024-02-13T13:02:27.348Z,13.70
2024-02-13T13:04:54.723Z,13.50
2024-02-13T13:07:29.764Z,13.20
2024-02-13T13:09:59.320Z,13.50
2024-02-13T13:12:28.681Z,13.40
2024-02-13T13:15:09.331Z,13.40
2024-02-13T13:17:40.670Z,13.50
2024-02-13T13:20:13.961Z,13.80
2024-02-13T13:22:49.535Z,13.70
2024-02-13T13:25:25.452Z,13.10
2024-02-13T13:27:53.309Z,12.80
2024-02-13T13:30:21.533Z,12.70
2024-02-13T13:32:50.125Z,13.30
2024-02-13T13:35:21.421Z,13.80
2024-02-13T13:37:51.148Z,13.80
2024-02-13T13:40:18.229Z,14.00
2024-02-13T13:42:45.927Z,14.40
2024-02-13T13:45:18.370Z,14.50
2024-02-13T13:47:49.153Z,14.60
2024-02-13T13:50:22.963Z,14.20
2024-02-13T13:52:56.072Z,14.40
2024-02-13T13:55:26.766Z,14.60
2024-02-13T13:57:59.065Z,14.50
2024-02-13T14:00:31.059Z,13.50
2024-02-13T14:03:03.824Z,13.40
2024-02-13T14:05:38.990Z,13.50
2024-02-13T14:08:11.919Z,13.50
2024-02-13T14:10:40.144Z,13.20
2024-02-13T14:13:15.418Z,13.20
2024-02-13T14:15:48.006Z,13.20
2024-02-13T14:18:23.140Z,13.10
2024-02-13T14:20:50.424Z,13.00
2024-02-13T14:23:21.627Z,12.80
2024-02-13T14:25:50.373Z,12.60
2024-02-13T14:28:17.446Z,12.60
2024-02-13T14:30:44.303Z,12.80
2024-02-13T14:33:13.220Z,12.80
2024-02-13T14:35:40.838Z,12.70
2024-02-13T14:38:08.978Z,12.70
2024-02-13T14:40:40.734Z,13.60
2024-02-13T14:43:08.769Z,13.60
2024-02-13T14:45:42.251Z,13.90
2024-02-13T14:48:14.458Z,13.10
2024-02-13T14:50:42.477Z,13.40
2024-02-13T14:53:10.269Z,13.20
2024-02-13T14:55:39.756Z,13.20
2024-02-13T14:58:15.121Z,13.20
2024-02-13T15:01:01.225Z,12.90
2024-02-13T15:03:29.583Z,13.10
2024-02-13T15:05:56.564Z,13.10
2024-02-13T15:08:26.092Z,13.10
2024-02-13T15:10:53.654Z,12.80
2024-02-13T15:13:21.596Z,12.70
2024-02-13T15:15:52.271Z,12.50
2024-02-13T15:18:23.992Z,12.60
2024-02-13T15:20:51.284Z,12.80
2024-02-13T15:23:18.444Z,12.70
2024-02-13T15:25:46.687Z,12.80
2024-02-13T15:28:15.710Z,12.90
2024-02-13T15:30:42.617Z,12.70
2024-02-13T15:33:09.641Z,12.80
2024-02-13T15:35:43.369Z,12.80
2024-02-13T15:38:30.000Z,13.00
2024-02-13T15:41:15.562Z,13.10
2024-02-13T15:44:03.274Z,13.20
2024-02-13T15:46:48.613Z,12.90
2024-02-13T15:49:19.001Z,13.10
2024-02-13T15:51:46.860Z,13.10
2024-02-13T15:54:14.272Z,13.00
2024-02-13T15:56:49.956Z,12.70
2024-02-13T15:59:20.251Z,12.60
2024-02-13T16:01:47.365Z,12.50
2024-02-13T16:04:19.113Z,12.50
2024-02-13T16:06:48.302Z,12.60
2024-02-13T16:09:16.084Z,12.50
2024-02-13T16:11:43.515Z,12.50
2024-02-13T16:14:13.500Z,12.40
2024-02-13T16:16:40.875Z,12.40
2024-02-13T16:19:10.700Z,12.30
2024-02-13T16:21:45.558Z,12.30
2024-02-13T16:24:15.309Z,12.30
2024-02-13T16:26:44.747Z,12.30
2024-02-13T16:29:14.920Z,12.00
2024-02-13T16:31:44.238Z,11.90
2024-02-13T16:34:12.498Z,11.90
2024-02-13T16:36:45.836Z,11.80
2024-02-13T16:39:13.066Z,11.70
2024-02-13T16:41:40.187Z,11.60
2024-02-13T16:44:07.388Z,11.50
2024-02-13T16:46:36.808Z,11.40
2024-02-13T16:49:04.080Z,11.50
2024-02-13T16:51:39.469Z,11.30
2024-02-13T16:54:09.436Z,10.90
2024-02-13T16:59:59.648Z,10.70
2024-02-13T17:02:35.236Z,10.80
2024-02-13T17:05:10.731Z,10.70
2024-02-13T17:08:21.730Z,10.50
2024-02-13T17:10:49.093Z,10.40
2024-02-13T17:13:41.989Z,10.30
2024-02-13T17:16:10.070Z,10.30
2024-02-13T17:18:37.230Z,10.20
2024-02-13T17:25:14.766Z,10.10
2024-02-13T17:28:37.742Z,10.30
2024-02-13T18:00:14.910Z,9.80
2024-02-13T18:03:07.297Z,9.70
2024-02-13T18:06:35.376Z,9.80
2024-02-13T18:09:14.166Z,9.70
2024-02-13T18:12:00.355Z,9.60
2024-02-13T18:14:32.556Z,9.60
2024-02-13T18:17:25.867Z,9.80
2024-02-13T18:20:03.560Z,9.90
2024-02-13T18:22:45.656Z,9.70
2024-02-13T18:25:17.190Z,9.50
2024-02-13T18:27:48.846Z,9.50
2024-02-13T18:30:19.703Z,9.60
2024-02-13T18:35:28.167Z,9.30
2024-02-13T18:37:57.592Z,9.30
2024-02-13T18:40:36.911Z,9.40
2024-02-13T18:43:35.900Z,9.50
2024-02-13T18:46:07.805Z,9.40
2024-02-13T18:48:47.708Z,9.20
2024-02-13T18:51:19.337Z,9.30
2024-02-13T18:53:50.163Z,9.30
2024-02-13T18:56:23.821Z,9.20
2024-02-13T18:58:56.900Z,9.30
2024-02-13T19:01:42.145Z,9.10
2024-02-13T19:04:21.396Z,9.10
2024-02-13T19:06:59.588Z,9.10
2024-02-13T19:09:52.388Z,9.00
2024-02-13T19:12:33.960Z,9.00
2024-02-13T19:15:07.292Z,9.00
2024-02-13T19:20:49.518Z,8.90
2024-02-13T19:23:59.486Z,8.90
2024-02-13T19:26:39.111Z,8.70
2024-02-13T19:29:06.054Z,8.80
2024-02-13T19:31:42.467Z,8.40
2024-02-13T19:34:12.361Z,8.40
2024-02-13T19:36:52.602Z,8.60
2024-02-13T19:39:22.013Z,8.50
2024-02-13T19:41:58.853Z,8.60
2024-02-13T19:44:32.179Z,8.70
2024-02-13T19:46:59.863Z,8.70
2024-02-13T19:49:41.863Z,8.60
2024-02-13T19:52:21.888Z,8.50
2024-02-13T19:54:49.299Z,8.50
2024-02-13T19:57:19.063Z,8.50
2024-02-13T19:59:47.993Z,8.50
2024-02-13T20:02:20.317Z,8.50
2024-02-13T20:04:49.103Z,8.40
2024-02-13T20:07:16.681Z,8.30
2024-02-13T20:09:45.135Z,8.30
2024-02-13T20:12:15.075Z,8.30
2024-02-13T20:14:45.689Z,8.10
2024-02-13T20:17:13.356Z,8.20
2024-02-13T20:19:41.166Z,8.20
2024-02-13T20:22:21.534Z,8.30
2024-02-13T20:24:48.737Z,7.80
2024-02-13T20:27:15.713Z,7.80
2024-02-13T20:29:44.031Z,7.60
2024-02-13T20:32:11.311Z,7.80
2024-02-13T20:34:38.714Z,8.00
2024-02-13T20:37:05.889Z,7.90
2024-02-13T20:39:34.046Z,8.10
2024-02-13T20:42:03.432Z,7.90
2024-02-13T20:44:36.614Z,7.70
2024-02-13T20:47:03.706Z,7.80
2024-02-13T20:49:32.022Z,7.80
2024-02-13T20:51:58.951Z,7.90
2024-02-13T20:54:26.118Z,7.90
2024-02-13T20:56:53.184Z,7.60
2024-02-13T20:59:21.188Z,7.70
2024-02-13T21:01:49.405Z,7.40
2024-02-13T21:04:16.743Z,7.60
2024-02-13T21:06:45.174Z,7.40
2024-02-13T21:09:13.542Z,6.90
2024-02-13T21:11:41.646Z,7.20
2024-02-13T21:14:08.945Z,7.10
2024-02-13T21:16:35.819Z,6.90
2024-02-13T21:19:03.073Z,7.10
2024-02-13T21:21:48.448Z,6.90
2024-02-13T21:24:15.423Z,7.00
2024-02-13T21:26:42.603Z,7.00
2024-02-13T21:29:10.085Z,6.90
2024-02-13T21:31:37.626Z,7.10
2024-02-13T21:34:07.122Z,7.10
2024-02-13T21:36:37.834Z,6.90
2024-02-13T21:39:09.073Z,7.10
2024-02-13T21:41:37.169Z,6.90
2024-02-13T21:44:04.998Z,7.00
2024-02-13T21:46:32.660Z,6.80
2024-02-13T21:49:00.146Z,6.90
2024-02-13T21:51:27.025Z,7.20
2024-02-13T21:53:54.093Z,7.20
2024-02-13T21:56:23.139Z,7.00
2024-02-13T21:58:50.613Z,6.80
2024-02-13T22:01:17.735Z,6.70
2024-02-13T22:03:44.697Z,6.70
2024-02-13T22:06:16.053Z,6.80
2024-02-13T22:08:44.283Z,7.10
2024-02-13T22:11:11.879Z,7.00
2024-02-13T22:13:38.706Z,6.90
2024-02-13T22:16:06.152Z,6.50
2024-02-13T22:18:33.051Z,6.70
2024-02-13T22:21:00.121Z,6.60
2024-02-13T22:23:27.112Z,7.00
2024-02-13T22:25:57.858Z,6.60
2024-02-13T22:28:24.707Z,6.40
2024-02-13T22:30:51.660Z,6.50
2024-02-13T22:33:18.723Z,6.40
2024-02-13T22:35:45.842Z,6.20
2024-02-13T22:38:12.787Z,6.40
2024-02-13T22:40:39.614Z,6.70
2024-02-13T22:43:06.474Z,6.60
2024-02-13T22:45:33.543Z,6.70
2024-02-13T22:48:03.038Z,6.80
2024-02-13T22:50:30.766Z,6.60
2024-02-13T22:52:59.829Z,6.80
2024-02-13T22:55:30.532Z,6.60
2024-02-13T22:58:00.749Z,7.00
2024-02-13T23:00:44.833Z,7.00
2024-02-13T23:03:14.018Z,6.80
2024-02-13T23:05:47.994Z,6.70
2024-02-13T23:08:16.768Z,6.80
2024-02-13T23:10:43.803Z,6.70
2024-02-13T23:13:13.531Z,6.70
2024-02-13T23:15:43.876Z,6.60
2024-02-13T23:18:12.088Z,6.70
2024-02-13T23:20:39.266Z,7.00
2024-02-13T23:23:06.376Z,7.20
2024-02-13T23:25:36.468Z,7.00
2024-02-13T23:28:08.003Z,6.80
2024-02-13T23:30:36.133Z,6.60
2024-02-13T23:33:03.397Z,6.70
2024-02-13T23:35:30.323Z,6.90
2024-02-13T23:37:57.271Z,6.70
2024-02-13T23:40:24.828Z,6.90
2024-02-13T23:42:52.585Z,7.20
2024-02-13T23:45:19.779Z,7.40
2024-02-13T23:47:47.851Z,7.40
2024-02-13T23:50:15.076Z,7.10
2024-02-13T23:52:42.434Z,7.20
2024-02-13T23:55:10.684Z,7.10
2024-02-13T23:57:45.986Z,7.10
